createdAt,value
2023-11-01T00:01:06.676Z,9.24
2023-11-01T00:03:34.793Z,9.29
2023-11-01T00:06:04.129Z,9.25
2023-11-01T00:08:38.799Z,9.20
2023-11-01T00:11:06.943Z,9.17
2023-11-01T00:13:35.869Z,9.20
2023-11-01T00:16:04.459Z,9.20
2023-11-01T00:18:32.419Z,9.20
2023-11-01T00:21:00.558Z,9.17
2023-11-01T00:23:30.189Z,9.18
2023-11-01T00:25:58.211Z,9.16
2023-11-01T00:28:28.179Z,9.17
2023-11-01T00:30:56.340Z,9.17
2023-11-01T00:33:24.325Z,9.19
2023-11-01T00:35:53.601Z,9.21
2023-11-01T00:38:25.276Z,9.19
2023-11-01T00:40:53.844Z,9.16
2023-11-01T00:43:22.011Z,9.11
2023-11-01T00:45:51.578Z,9.07
2023-11-01T00:48:20.715Z,9.02
2023-11-01T00:50:50.287Z,8.98
2023-11-01T00:53:18.492Z,8.96
2023-11-01T00:55:47.664Z,8.95
2023-11-01T00:58:15.686Z,8.89
2023-11-01T01:00:46.082Z,8.83
2023-11-01T01:03:15.278Z,8.80
2023-11-01T01:05:43.552Z,8.78
2023-11-01T01:08:11.820Z,8.74
2023-11-01T01:10:59.876Z,8.69
2023-11-01T01:13:28.357Z,8.66
2023-11-01T01:16:16.804Z,8.70
2023-11-01T01:18:44.821Z,8.73
2023-11-01T01:21:13.534Z,8.79
2023-11-01T01:23:41.601Z,8.87
2023-11-01T01:26:15.965Z,8.93
2023-11-01T01:28:47.895Z,8.96
2023-11-01T01:31:15.828Z,8.90
2023-11-01T01:33:45.761Z,8.88
2023-11-01T01:36:16.231Z,8.86
2023-11-01T01:38:51.116Z,8.83
2023-11-01T01:41:25.143Z,8.79
2023-11-01T01:44:03.557Z,8.74
2023-11-01T01:46:31.921Z,8.71
2023-11-01T01:49:00.173Z,8.68
2023-11-01T01:51:28.779Z,8.66
2023-11-01T01:53:57.706Z,8.65
2023-11-01T01:56:26.027Z,8.69
2023-11-01T01:58:58.558Z,8.72
2023-11-01T02:01:38.701Z,8.69
2023-11-01T02:04:11.176Z,8.70
2023-11-01T02:06:39.065Z,8.73
2023-11-01T02:09:20.686Z,8.68
2023-11-01T02:11:48.646Z,8.67
2023-11-01T02:14:17.708Z,8.68
2023-11-01T02:16:45.578Z,8.71
2023-11-01T02:19:17.589Z,8.75
2023-11-01T02:21:45.921Z,8.75
2023-11-01T02:24:14.004Z,8.68
2023-11-01T02:26:42.259Z,8.65
2023-11-01T02:29:12.866Z,8.65
2023-11-01T02:31:42.967Z,8.64
2023-11-01T02:34:11.114Z,8.66
2023-11-01T02:36:40.506Z,8.70
2023-11-01T02:39:08.453Z,8.72
2023-11-01T02:41:40.132Z,8.71
2023-11-01T02:44:09.977Z,8.72
2023-11-01T02:46:38.192Z,8.73
2023-11-01T02:49:06.452Z,8.69
2023-11-01T02:51:34.547Z,8.65
2023-11-01T02:54:02.898Z,8.66
2023-11-01T02:56:37.292Z,8.73
2023-11-01T02:59:07.155Z,8.77
2023-11-01T03:01:35.274Z,8.74
2023-11-01T03:04:04.914Z,8.72
2023-11-01T03:06:32.959Z,8.69
2023-11-01T03:09:00.928Z,8.69
2023-11-01T03:11:28.908Z,8.66
2023-11-01T03:13:56.786Z,8.63
2023-11-01T03:16:25.798Z,8.62
2023-11-01T03:18:57.705Z,8.62
2023-11-01T03:21:25.660Z,8.65
2023-11-01T03:23:55.310Z,8.63
2023-11-01T03:26:24.511Z,8.57
2023-11-01T03:28:53.608Z,8.52
2023-11-01T03:31:21.536Z,8.49
2023-11-01T03:33:49.689Z,8.46
2023-11-01T03:36:18.045Z,8.45
2023-11-01T03:38:45.862Z,8.42
2023-11-01T03:41:13.822Z,8.40
2023-11-01T03:43:44.017Z,8.32
2023-11-01T03:46:12.017Z,8.30
2023-11-01T03:48:40.843Z,8.26
2023-11-01T03:51:09.232Z,8.23
2023-11-01T03:53:37.355Z,8.21
2023-11-01T03:56:05.821Z,8.13
2023-11-01T03:58:44.225Z,8.07
2023-11-01T04:01:12.302Z,8.04
2023-11-01T04:03:40.390Z,8.00
2023-11-01T04:06:09.736Z,8.00
2023-11-01T04:08:39.524Z,7.97
2023-11-01T04:11:07.629Z,7.87
2023-11-01T04:13:35.503Z,7.87
2023-11-01T04:16:03.714Z,7.87
2023-11-01T04:18:33.760Z,7.87
2023-11-01T04:21:01.764Z,7.85
2023-11-01T04:23:36.126Z,7.76
2023-11-01T04:26:05.763Z,7.73
2023-11-01T04:28:33.864Z,7.70
2023-11-01T04:31:25.728Z,7.62
2023-11-01T04:33:55.751Z,7.57
2023-11-01T04:36:26.378Z,7.59
2023-11-01T04:38:56.568Z,7.61
2023-11-01T04:41:45.308Z,7.65
2023-11-01T04:44:13.320Z,7.64
2023-11-01T04:46:44.465Z,7.66
2023-11-01T04:49:12.462Z,7.64
2023-11-01T04:51:40.320Z,7.65
2023-11-01T04:54:08.480Z,7.60
2023-11-01T04:56:37.616Z,7.56
2023-11-01T04:59:05.569Z,7.54
2023-11-01T05:01:33.490Z,7.53
2023-11-01T05:04:01.873Z,7.50
2023-11-01T05:06:29.747Z,7.48
2023-11-01T05:08:58.686Z,7.41
2023-11-01T05:11:27.010Z,7.39
2023-11-01T05:13:54.942Z,7.39
2023-11-01T05:16:25.251Z,7.25
2023-11-01T05:18:58.727Z,7.18
2023-11-01T05:21:27.382Z,7.18
2023-11-01T05:23:55.348Z,7.04
2023-11-01T05:26:23.616Z,6.90
2023-11-01T05:28:51.722Z,6.83
2023-11-01T05:31:22.041Z,6.77
2023-11-01T05:33:51.958Z,6.65
2023-11-01T05:36:22.476Z,6.56
2023-11-01T05:38:50.635Z,6.53
2023-11-01T05:41:20.515Z,6.53
2023-11-01T05:43:58.008Z,6.48
2023-11-01T05:46:26.124Z,6.47
2023-11-01T05:48:54.314Z,6.44
2023-11-01T05:51:22.336Z,6.41
2023-11-01T05:53:59.872Z,6.36
2023-11-01T05:56:28.420Z,6.32
2023-11-01T05:58:57.281Z,6.33
2023-11-01T06:01:25.649Z,6.35
2023-11-01T06:03:57.756Z,6.38
2023-11-01T06:06:26.372Z,6.31
2023-11-01T06:08:54.544Z,6.24
2023-11-01T06:11:23.758Z,6.17
2023-11-01T06:13:51.921Z,6.12
2023-11-01T06:16:19.957Z,6.09
2023-11-01T06:18:49.624Z,6.08
2023-11-01T06:21:17.718Z,6.06
2023-11-01T06:23:45.998Z,6.02
2023-11-01T06:26:21.193Z,5.96
2023-11-01T06:28:50.822Z,5.94
2023-11-01T06:31:22.886Z,5.90
2023-11-01T06:33:51.013Z,5.90
2023-11-01T06:36:19.137Z,5.90
2023-11-01T06:38:47.779Z,5.90
2023-11-01T06:41:18.721Z,5.90
2023-11-01T06:43:48.370Z,5.93
2023-11-01T06:46:16.361Z,5.92
2023-11-01T06:48:44.308Z,5.99
2023-11-01T06:51:12.630Z,5.99
2023-11-01T06:53:40.730Z,5.93
2023-11-01T06:56:15.751Z,5.90
2023-11-01T06:58:45.213Z,5.92
2023-11-01T07:01:13.853Z,5.86
2023-11-01T07:03:42.239Z,5.81
2023-11-01T07:06:10.651Z,5.73
2023-11-01T07:08:39.402Z,5.62
2023-11-01T07:11:10.022Z,5.57
2023-11-01T07:13:38.108Z,5.52
2023-11-01T07:16:07.040Z,5.47
2023-11-01T07:18:35.147Z,5.47
2023-11-01T07:21:07.353Z,5.42
2023-11-01T07:23:35.681Z,5.38
2023-11-01T07:26:04.242Z,5.41
2023-11-01T07:28:34.294Z,5.42
2023-11-01T07:31:02.942Z,5.45
2023-11-01T07:33:31.213Z,5.51
2023-11-01T07:36:03.516Z,5.53
2023-11-01T07:38:35.390Z,5.54
2023-11-01T07:41:03.540Z,5.56
2023-11-01T07:43:32.837Z,5.55
2023-11-01T07:46:01.383Z,5.58
2023-11-01T07:48:29.478Z,5.67
2023-11-01T07:50:57.579Z,5.68
2023-11-01T07:53:25.659Z,5.66
2023-11-01T07:55:54.609Z,5.71
2023-11-01T07:58:24.170Z,5.74
2023-11-01T08:00:52.973Z,5.74
2023-11-01T08:03:21.971Z,5.63
2023-11-01T08:05:50.424Z,5.61
2023-11-01T08:08:18.737Z,5.59
2023-11-01T08:10:46.628Z,5.65
2023-11-01T08:13:21.235Z,5.66
2023-11-01T08:15:49.170Z,5.70
2023-11-01T08:18:17.227Z,5.76
2023-11-01T08:20:45.696Z,5.80
2023-11-01T08:23:13.979Z,5.79
2023-11-01T08:25:42.102Z,5.83
2023-11-01T08:28:10.386Z,5.86
2023-11-01T08:30:38.476Z,5.85
2023-11-01T08:33:06.826Z,5.85
2023-11-01T08:35:34.967Z,5.85
2023-11-01T08:38:04.320Z,5.84
2023-11-01T08:40:32.288Z,5.83
2023-11-01T08:43:01.529Z,5.87
2023-11-01T08:45:29.600Z,5.94
2023-11-01T08:47:57.768Z,6.00
2023-11-01T08:50:27.851Z,6.06
2023-11-01T08:53:00.249Z,6.14
2023-11-01T08:55:28.286Z,6.25
2023-11-01T08:57:56.743Z,6.36
2023-11-01T09:00:35.184Z,6.47
2023-11-01T09:03:10.393Z,6.56
2023-11-01T09:05:39.392Z,6.65
2023-11-01T09:08:08.294Z,6.64
2023-11-01T09:10:43.357Z,6.52
2023-11-01T09:13:12.690Z,6.56
2023-11-01T09:15:40.904Z,6.69
2023-11-01T09:18:09.043Z,6.77
2023-11-01T09:20:37.095Z,6.77
2023-11-01T09:23:10.315Z,6.73
2023-11-01T09:25:39.543Z,6.69
2023-11-01T09:28:07.593Z,6.70
2023-11-01T09:30:36.970Z,6.80
2023-11-01T09:33:05.624Z,6.97
2023-11-01T09:35:34.036Z,7.21
2023-11-01T09:38:02.383Z,7.26
2023-11-01T09:40:37.874Z,7.23
2023-11-01T09:43:08.777Z,7.24
2023-11-01T09:45:37.963Z,7.64
2023-11-01T09:48:07.159Z,8.15
2023-11-01T09:50:40.247Z,8.59
2023-11-01T09:53:18.175Z,8.72
2023-11-01T09:55:47.403Z,8.79
2023-11-01T09:58:19.841Z,9.10
2023-11-01T10:00:48.370Z,9.71
2023-11-01T10:03:19.129Z,9.81
2023-11-01T10:05:47.587Z,10.35
2023-11-01T10:08:15.707Z,10.82
2023-11-01T10:10:44.338Z,11.29
2023-11-01T10:13:13.781Z,11.83
2023-11-01T10:15:48.061Z,12.12
2023-11-01T10:18:17.083Z,12.61
2023-11-01T10:20:45.838Z,13.05
2023-11-01T10:23:14.204Z,13.44
2023-11-01T10:25:49.063Z,13.59
2023-11-01T10:28:20.411Z,13.81
2023-11-01T10:30:50.829Z,14.22
2023-11-01T10:33:20.643Z,14.45
2023-11-01T10:36:07.187Z,14.08
2023-11-01T10:38:35.312Z,13.52
2023-11-01T10:41:04.977Z,14.13
2023-11-01T10:43:34.195Z,15.11
2023-11-01T10:46:03.621Z,15.42
2023-11-01T10:48:31.729Z,15.28
2023-11-01T10:51:00.979Z,15.26
2023-11-01T10:53:42.505Z,15.11
2023-11-01T10:56:11.143Z,15.93
2023-11-01T10:58:45.110Z,16.59
2023-11-01T11:01:30.556Z,16.72
2023-11-01T11:04:24.451Z,16.57
2023-11-01T11:07:00.298Z,17.04
2023-11-01T11:09:29.182Z,17.77
2023-11-01T11:12:25.616Z,18.15
2023-11-01T11:15:00.457Z,18.77
2023-11-01T11:17:29.591Z,19.43
2023-11-01T11:20:06.973Z,20.16
2023-11-01T11:23:04.706Z,20.78
2023-11-01T11:25:38.805Z,21.38
2023-11-01T11:28:30.206Z,20.83
2023-11-01T11:31:09.999Z,19.59
2023-11-01T11:33:50.912Z,19.64
2023-11-01T11:36:23.345Z,19.54
2023-11-01T11:38:52.954Z,20.20
2023-11-01T11:41:25.293Z,20.55
2023-11-01T11:44:09.656Z,20.59
2023-11-01T11:46:46.648Z,20.84
2023-11-01T11:49:28.609Z,21.28
2023-11-01T11:52:03.139Z,20.99
2023-11-01T11:54:32.311Z,21.10
2023-11-01T11:57:10.550Z,21.48
2023-11-01T11:59:41.177Z,21.52
2023-11-01T12:02:17.392Z,21.61
2023-11-01T12:04:46.042Z,22.18
2023-11-01T12:07:20.239Z,22.73
2023-11-01T12:09:57.345Z,23.47
2023-11-01T12:12:29.661Z,22.93
2023-11-01T12:15:02.335Z,21.06
2023-11-01T12:17:31.340Z,19.31
2023-11-01T12:20:00.047Z,19.00
2023-11-01T12:22:29.863Z,18.59
2023-11-01T12:25:06.097Z,17.64
2023-11-01T12:27:42.068Z,17.11
2023-11-01T12:30:21.302Z,16.66
2023-11-01T12:32:57.809Z,15.99
2023-11-01T12:35:26.244Z,15.56
2023-11-01T12:37:54.348Z,15.44
2023-11-01T12:40:30.593Z,15.33
2023-11-01T12:43:10.091Z,15.29
2023-11-01T12:45:38.382Z,15.17
2023-11-01T12:48:07.904Z,14.97
2023-11-01T12:50:40.517Z,14.74
2023-11-01T12:53:08.878Z,14.42
2023-11-01T12:55:37.189Z,14.35
2023-11-01T12:58:08.486Z,14.27
2023-11-01T13:00:36.862Z,13.88
2023-11-01T13:03:07.859Z,13.77
2023-11-01T13:05:39.632Z,13.94
2023-11-01T13:08:08.266Z,13.97
2023-11-01T13:10:36.499Z,13.77
2023-11-01T13:13:07.089Z,13.44
2023-11-01T13:15:35.848Z,13.49
2023-11-01T13:18:04.256Z,13.57
2023-11-01T13:20:32.372Z,13.74
2023-11-01T13:23:01.866Z,13.97
2023-11-01T13:25:29.861Z,14.21
2023-11-01T13:27:57.816Z,14.43
2023-11-01T13:30:26.125Z,14.53
2023-11-01T13:32:54.388Z,14.40
2023-11-01T13:35:22.967Z,14.57
2023-11-01T13:37:52.305Z,14.70
2023-11-01T13:40:21.872Z,14.92
2023-11-01T13:42:50.624Z,15.25
2023-11-01T13:45:18.573Z,15.58
2023-11-01T13:47:47.392Z,15.75
2023-11-01T13:50:18.559Z,16.00
2023-11-01T13:52:46.718Z,16.46
2023-11-01T13:55:14.982Z,16.66
2023-11-01T13:57:43.249Z,17.18
2023-11-01T14:00:11.744Z,18.62
2023-11-01T14:02:40.518Z,20.00
2023-11-01T14:05:08.973Z,21.22
2023-11-01T14:07:41.668Z,22.21
2023-11-01T14:10:11.030Z,22.60
2023-11-01T14:12:40.119Z,22.62
2023-11-01T14:15:09.721Z,22.78
2023-11-01T14:17:37.933Z,21.32
2023-11-01T14:20:09.066Z,19.73
2023-11-01T14:22:44.257Z,18.36
2023-11-01T14:25:32.287Z,17.18
2023-11-01T14:28:01.916Z,15.98
2023-11-01T14:30:36.894Z,15.07
2023-11-01T14:33:05.047Z,14.38
2023-11-01T14:35:33.252Z,13.80
2023-11-01T14:38:01.645Z,13.29
2023-11-01T14:40:31.784Z,12.78
2023-11-01T14:43:00.277Z,12.37
2023-11-01T14:45:28.418Z,12.03
2023-11-01T14:47:57.707Z,11.73
2023-11-01T14:50:28.448Z,11.41
2023-11-01T14:52:56.741Z,11.05
2023-11-01T14:55:25.136Z,10.89
2023-11-01T14:57:53.693Z,10.73
2023-11-01T15:00:23.272Z,10.60
2023-11-01T15:02:51.907Z,10.33
2023-11-01T15:05:20.378Z,9.99
2023-11-01T15:07:51.053Z,9.64
2023-11-01T15:10:19.233Z,9.54
2023-11-01T15:12:47.270Z,9.45
2023-11-01T15:15:16.191Z,9.19
2023-11-01T15:17:45.658Z,8.87
2023-11-01T15:20:14.634Z,8.61
2023-11-01T15:22:42.643Z,8.43
2023-11-01T15:25:13.981Z,8.34
2023-11-01T15:27:42.477Z,8.22
2023-11-01T15:30:15.764Z,8.23
2023-11-01T15:32:44.016Z,8.15
2023-11-01T15:35:12.403Z,8.16
2023-11-01T15:37:41.416Z,8.07
2023-11-01T15:40:09.957Z,7.89
2023-11-01T15:42:37.861Z,7.77
2023-11-01T15:45:06.634Z,7.74
2023-11-01T15:47:34.994Z,7.73
2023-11-01T15:50:05.786Z,7.67
2023-11-01T15:52:36.997Z,7.55
2023-11-01T15:55:06.132Z,7.50
2023-11-01T15:57:34.645Z,7.44
2023-11-01T16:00:03.870Z,7.41
2023-11-01T16:02:34.569Z,7.42
2023-11-01T16:05:02.748Z,7.42
2023-11-01T16:07:34.978Z,7.39
2023-11-01T16:10:03.983Z,7.40
2023-11-01T16:12:32.902Z,7.44
2023-11-01T16:15:02.186Z,7.42
2023-11-01T16:17:37.005Z,7.44
2023-11-01T16:20:05.988Z,7.34
2023-11-01T16:22:36.067Z,7.25
2023-11-01T16:25:12.993Z,7.23
2023-11-01T16:27:41.576Z,7.21
2023-11-01T16:30:35.449Z,7.23
2023-11-01T16:33:03.789Z,7.15
2023-11-01T16:35:33.566Z,7.04
2023-11-01T16:38:02.718Z,7.02
2023-11-01T16:40:34.930Z,7.05
2023-11-01T16:43:08.800Z,7.02
2023-11-01T16:45:41.873Z,7.02
2023-11-01T16:48:10.958Z,7.01
2023-11-01T16:50:40.094Z,6.92
2023-11-01T16:53:08.144Z,6.83
2023-11-01T16:55:37.418Z,6.76
2023-11-01T16:58:06.057Z,6.72
2023-11-01T17:00:45.247Z,6.70
2023-11-01T17:03:13.513Z,6.60
2023-11-01T17:05:42.246Z,6.56
2023-11-01T17:08:12.294Z,6.62
2023-11-01T17:10:40.682Z,6.67
2023-11-01T17:13:11.076Z,6.75
2023-11-01T17:15:45.690Z,6.84
2023-11-01T17:18:22.080Z,6.89
2023-11-01T17:20:50.007Z,6.89
2023-11-01T17:23:18.313Z,6.93
2023-11-01T17:25:47.821Z,6.99
2023-11-01T17:28:37.959Z,7.01
2023-11-01T17:31:15.666Z,6.94
2023-11-01T17:33:49.486Z,6.92
2023-11-01T17:36:28.686Z,6.79
2023-11-01T17:39:00.959Z,6.69
2023-11-01T17:41:55.467Z,6.63
2023-11-01T17:44:25.411Z,6.53
2023-11-01T17:46:58.073Z,6.44
2023-11-01T17:49:49.068Z,6.41
2023-11-01T17:52:27.481Z,6.42
2023-11-01T17:54:56.723Z,6.44
2023-11-01T17:57:25.987Z,6.48
2023-11-01T17:59:55.937Z,6.57
2023-11-01T18:02:28.914Z,6.57
2023-11-01T18:05:00.001Z,6.56
2023-11-01T18:07:28.124Z,6.54
2023-11-01T18:09:58.504Z,6.59
2023-11-01T18:12:31.217Z,6.63
2023-11-01T18:15:01.391Z,6.66
2023-11-01T18:17:35.444Z,6.69
2023-11-01T18:20:10.874Z,6.72
2023-11-01T18:22:43.306Z,6.70
2023-11-01T18:25:33.674Z,6.71
2023-11-01T18:28:04.450Z,6.74
2023-11-01T18:30:33.314Z,6.81
2023-11-01T18:33:05.735Z,6.90
2023-11-01T18:35:36.814Z,6.95
2023-11-01T18:38:05.024Z,7.00
2023-11-01T18:40:33.371Z,7.02
2023-11-01T18:43:02.765Z,7.02
2023-11-01T18:45:35.194Z,7.04
2023-11-01T18:48:04.214Z,7.03
2023-11-01T18:50:34.474Z,7.04
2023-11-01T18:53:05.157Z,6.94
2023-11-01T18:55:36.298Z,6.88
2023-11-01T18:58:05.120Z,6.80
2023-11-01T19:00:34.669Z,6.63
2023-11-01T19:03:12.807Z,6.54
2023-11-01T19:05:54.998Z,6.49
2023-11-01T19:08:23.090Z,6.44
2023-11-01T19:10:51.969Z,6.47
2023-11-01T19:13:20.123Z,6.51
2023-11-01T19:16:01.914Z,6.52
2023-11-01T19:18:35.320Z,6.53
2023-11-01T19:21:06.171Z,6.51
2023-11-01T19:23:34.665Z,6.54
2023-11-01T19:26:05.565Z,6.57
2023-11-01T19:28:33.504Z,6.59
2023-11-01T19:31:03.781Z,6.65
2023-11-01T19:33:35.957Z,6.76
2023-11-01T19:36:14.162Z,6.91
2023-11-01T19:38:44.915Z,7.00
2023-11-01T19:41:13.392Z,7.10
2023-11-01T19:43:48.691Z,7.11
2023-11-01T19:46:16.769Z,7.10
2023-11-01T19:48:48.308Z,7.07
2023-11-01T19:51:17.319Z,7.10
2023-11-01T19:53:47.014Z,7.21
2023-11-01T19:56:16.678Z,7.34
2023-11-01T19:58:47.911Z,7.44
2023-11-01T20:01:16.525Z,7.45
2023-11-01T20:03:46.290Z,7.35
2023-11-01T20:06:19.698Z,7.28
2023-11-01T20:08:48.301Z,7.25
2023-11-01T20:11:16.650Z,7.20
2023-11-01T20:13:44.982Z,7.17
2023-11-01T20:16:21.530Z,7.24
2023-11-01T20:18:54.156Z,7.30
2023-11-01T20:21:22.816Z,7.27
2023-11-01T20:23:51.681Z,7.29
2023-11-01T20:26:22.076Z,7.28
2023-11-01T20:28:50.226Z,7.28
2023-11-01T20:31:18.978Z,7.31
2023-11-01T20:33:50.112Z,7.33
2023-11-01T20:36:24.794Z,7.37
2023-11-01T20:38:58.258Z,7.41
2023-11-01T20:41:26.757Z,7.43
2023-11-01T20:43:57.217Z,7.45
2023-11-01T20:46:25.368Z,7.48
2023-11-01T20:48:53.665Z,7.50
2023-11-01T20:51:23.349Z,7.59
2023-11-01T20:53:51.584Z,7.72
2023-11-01T20:56:23.002Z,7.75
2023-11-01T20:58:59.922Z,7.75
2023-11-01T21:01:28.152Z,7.73
2023-11-01T21:03:56.426Z,7.73
2023-11-01T21:06:24.767Z,7.73
2023-11-01T21:08:55.884Z,7.75
2023-11-01T21:11:27.954Z,7.80
2023-11-01T21:13:55.876Z,7.82
2023-11-01T21:16:24.243Z,7.82
2023-11-01T21:18:52.409Z,7.85
2023-11-01T21:21:21.372Z,7.87
2023-11-01T21:23:49.542Z,7.90
2023-11-01T21:26:17.660Z,7.87
2023-11-01T21:28:45.609Z,7.85
2023-11-01T21:31:13.662Z,7.87
2023-11-01T21:33:46.814Z,7.92
2023-11-01T21:36:15.313Z,7.96
2023-11-01T21:38:43.715Z,8.00
2023-11-01T21:41:15.713Z,8.01
2023-11-01T21:43:56.183Z,7.99
2023-11-01T21:46:29.566Z,7.98
2023-11-01T21:48:58.205Z,7.99
2023-11-01T21:51:34.606Z,8.01
2023-11-01T21:54:05.823Z,7.99
2023-11-01T21:56:34.101Z,7.97
2023-11-01T21:59:14.158Z,7.99
2023-11-01T22:01:42.109Z,8.03
2023-11-01T22:04:21.623Z,8.03
2023-11-01T22:06:52.532Z,8.00
2023-11-01T22:09:22.250Z,8.00
2023-11-01T22:11:52.852Z,8.01
2023-11-01T22:14:32.254Z,7.98
2023-11-01T22:17:03.185Z,7.96
2023-11-01T22:19:33.848Z,7.92
2023-11-01T22:22:03.087Z,7.89
2023-11-01T22:24:34.928Z,7.86
2023-11-01T22:27:13.240Z,7.81
2023-11-01T22:29:52.549Z,7.75
2023-11-01T22:32:22.066Z,7.75
2023-11-01T22:34:52.344Z,7.73
2023-11-01T22:37:22.669Z,7.70
2023-11-01T22:39:55.131Z,7.69
2023-11-01T22:42:30.613Z,7.65
2023-11-01T22:45:03.474Z,7.60
2023-11-01T22:47:32.381Z,7.58
2023-11-01T22:50:00.706Z,7.59
2023-11-01T22:52:28.895Z,7.58
2023-11-01T22:55:00.873Z,7.59
2023-11-01T22:57:28.791Z,7.58
2023-11-01T23:00:13.976Z,7.56
2023-11-01T23:02:42.743Z,7.52
2023-11-01T23:05:10.949Z,7.53
2023-11-01T23:07:39.286Z,7.57
2023-11-01T23:10:08.393Z,7.56
2023-11-01T23:12:43.285Z,7.57
2023-11-01T23:15:22.266Z,7.55
2023-11-01T23:17:57.448Z,7.56
2023-11-01T23:20:25.723Z,7.59
2023-11-01T23:22:56.783Z,7.61
2023-11-01T23:25:31.387Z,7.63
2023-11-01T23:28:41.238Z,7.59
2023-11-01T23:31:11.227Z,7.56
2023-11-01T23:34:03.657Z,7.56
2023-11-01T23:36:35.854Z,7.61
2023-11-01T23:39:11.110Z,7.65
2023-11-01T23:41:47.667Z,7.71
2023-11-01T23:44:15.929Z,7.73
2023-11-01T23:46:44.224Z,7.71
2023-11-01T23:52:46.336Z,7.64
2023-11-01T23:55:14.344Z,7.60
2023-11-01T23:57:42.543Z,7.60
